Main page
METAR-TAF:

METAR-TAF

Airports :

Paros National Airport

Paros, Greece

latitude: 37-01-15N, longitude: 025-06-46E, elevation: 38 m

Current weather observation

The report was made 41 minutes ago, at 09:50 UTC
Wind 18 kt from the North
Temperature 30°C
Humidity 46%
Pressure 1006 hPa
Visibility 10 km or more
Few clouds at a height of 3000 ft

METAR: LGPA 180950Z 36018KT 9999 FEW030 30/17 Q1006 NOSIG

Time: 13:31 (10:31 UTC)


TAF: missing

Weather observations and forecasts of more than 4000 airports (METAR and TAF reports).

The available stations are represented by yellow and red dots on the map.

Hover mouse over dot to see the name of the station.

Then click to see weather observations and forecasts.

To change the map : click on the green buttons with a black cross to zoom in, on the green button with a dash to zoom out, or on the green arrows for adjacent maps.


METAR-TAF: